This is the latest recevied weather packets stored in our database for station/object HS5GDX-4. If no packets are shown the sender has not sent any weather packets the latest 1 day(s).
| Time | Temp. | Humidity | Pressure | Rain* | Wind** | Luminosity | Snow |
|---|---|---|---|---|---|---|---|
| 1778012668 | 34.44° C | 43% | 966 hPa | - | 0 m/s | 0 W/m² | - |
| 1778011740 | 34.44° C | 43% | 966 hPa | - | 0 m/s | 0 W/m² | - |
| 1778010811 | 33.33° C | 46% | 966 hPa | - | 0 m/s | 0 W/m² | - |
| 1778009882 | 34.44° C | 43% | 966 hPa | - | 0 m/s | 0 W/m² | - |
| 1778008953 | 33.33° C | 45% | 966 hPa | - | 0 m/s | 0 W/m² | - |
| 1778008024 | 34.44° C | 44% | 966 hPa | - | 0 m/s | 0 W/m² | - |
| 1778007097 | 34.44° C | 43% | 966 hPa | - | 0 m/s | 0 W/m² | - |
| 1778006168 | 35° C | 43% | 966 hPa | - | 0 m/s | 0 W/m² | - |
| 1778005239 | 34.44° C | 43% | 967 hPa | - | 0 m/s | 0 W/m² | - |
| 1778004310 | 34.44° C | 43% | 967 hPa | - | 0 m/s | 0 W/m² | - |
| 1778003380 | 35° C | 41% | 967 hPa | - | 0 m/s | 0 W/m² | - |
| 1778002452 | 35.56° C | 40% | 967 hPa | - | 0 m/s | 0 W/m² | - |
| 1778001531 | 35.56° C | 40% | 967 hPa | - | 0 m/s | 0 W/m² | - |
| 1778001522 | 35.56° C | 40% | 967 hPa | - | 0 m/s | 0 W/m² | - |
| 1778000591 | 35° C | 41% | 967 hPa | - | 0 m/s | 0 W/m² | - |
| 1777999663 | 35° C | 41% | 967 hPa | - | 0 m/s | 0 W/m² | - |
| 1777998734 | 34.44° C | 42% | 968 hPa | - | 0 m/s | 0 W/m² | - |
| 1777997805 | 35° C | 40% | 968 hPa | - | 0 m/s | 0 W/m² | - |
| 1777996877 | 34.44° C | 40% | 968 hPa | - | 0 m/s | 0 W/m² | - |
| 1777995947 | 34.44° C | 39% | 968 hPa | - | 0 m/s | 0 W/m² | - |
| 1777995019 | 35° C | 39% | 968 hPa | - | 0 m/s | 0 W/m² | - |
| 1777994090 | 33.89° C | 42% | 968 hPa | - | 0 m/s | 0 W/m² | - |
| 1777993160 | 32.78° C | 44% | 967 hPa | - | 0 m/s | 0 W/m² | - |
| 1777992231 | 33.33° C | 43% | 967 hPa | - | 0 m/s | 0 W/m² | - |
| 1777991301 | 33.33° C | 42% | 967 hPa | - | 0 m/s | 0 W/m² | - |
* Rain since midnight (hover to see other rain measurements)
** Current wind speed in m/s (hover to see current wind gust speed)